TimeCDT,TemperatureF,Dew PointF,Humidity,Sea Level PressureIn,VisibilityMPH,Wind Direction,Wind SpeedMPH,Gust SpeedMPH,PrecipitationIn,Events,Conditions,WindDirDegrees,DateUTC
12:15 AM,57.2,48.2,72,30.04,10.0,ESE,8.1,-,N/A,,Clear,110,2013-05-06 05:15:00
12:35 AM,55.4,46.4,72,30.04,10.0,ESE,6.9,-,N/A,,Clear,120,2013-05-06 05:35:00
12:55 AM,55.4,46.4,72,30.04,10.0,ESE,6.9,-,N/A,,Clear,120,2013-05-06 05:55:00
1:35 AM,53.6,46.4,77,30.03,10.0,ENE,3.5,-,N/A,,Clear,60,2013-05-06 06:35:00
1:55 AM,51.8,44.6,76,30.03,10.0,NNE,3.5,-,N/A,,Clear,30,2013-05-06 06:55:00
2:15 AM,51.8,46.4,82,30.02,10.0,Calm,Calm,-,N/A,,Clear,0,2013-05-06 07:15:00
2:35 AM,51.8,46.4,82,30.02,10.0,North,3.5,-,N/A,,Mostly Cloudy,360,2013-05-06 07:35:00
2:55 AM,51.8,44.6,76,30.01,10.0,Calm,Calm,-,N/A,,Mostly Cloudy,0,2013-05-06 07:55:00
3:15 AM,53.6,44.6,72,30.01,10.0,Calm,Calm,-,N/A,,Overcast,0,2013-05-06 08:15:00
3:35 AM,53.6,46.4,77,30.01,10.0,North,5.8,-,N/A,,Overcast,350,2013-05-06 08:35:00
3:55 AM,53.6,46.4,77,30.01,10.0,North,4.6,-,N/A,,Overcast,360,2013-05-06 08:55:00
4:15 AM,53.6,46.4,77,30.02,10.0,North,4.6,-,N/A,,Overcast,350,2013-05-06 09:15:00
4:35 AM,53.6,46.4,77,30.02,10.0,North,4.6,-,N/A,,Overcast,360,2013-05-06 09:35:00
4:55 AM,53.6,46.4,77,30.02,10.0,NNW,5.8,-,N/A,,Overcast,340,2013-05-06 09:55:00
5:15 AM,53.6,46.4,77,30.03,10.0,North,3.5,-,N/A,,Overcast,350,2013-05-06 10:15:00
5:35 AM,53.6,46.4,77,30.03,10.0,NNW,5.8,-,N/A,,Overcast,340,2013-05-06 10:35:00
5:55 AM,53.6,46.4,77,30.03,10.0,NNW,8.1,-,N/A,,Overcast,340,2013-05-06 10:55:00
6:15 AM,55.4,44.6,67,30.04,10.0,North,5.8,-,N/A,,Overcast,10,2013-05-06 11:15:00
6:35 AM,55.4,44.6,67,30.04,10.0,NNE,4.6,-,N/A,,Overcast,20,2013-05-06 11:35:00
6:55 AM,55.4,44.6,67,30.05,10.0,North,5.8,-,N/A,,Overcast,360,2013-05-06 11:55:00
7:15 AM,55.4,46.4,72,30.05,10.0,North,5.8,-,N/A,,Overcast,360,2013-05-06 12:15:00
7:55 AM,55.4,46.4,72,30.06,10.0,North,8.1,-,N/A,,Overcast,360,2013-05-06 12:55:00
8:15 AM,57.2,46.4,67,30.06,10.0,North,6.9,-,N/A,,Overcast,360,2013-05-06 13:15:00
8:35 AM,57.2,46.4,67,30.07,10.0,North,6.9,-,N/A,,Overcast,10,2013-05-06 13:35:00
8:55 AM,59.0,46.4,63,30.07,10.0,NNE,6.9,-,N/A,,Overcast,20,2013-05-06 13:55:00
9:15 AM,60.8,46.4,59,30.07,10.0,NNE,12.7,-,N/A,,Overcast,30,2013-05-06 14:15:00
9:35 AM,62.6,46.4,55,30.07,10.0,NNE,11.5,18.4,N/A,,Scattered Clouds,30,2013-05-06 14:35:00
9:55 AM,64.4,46.4,52,30.07,10.0,NNE,10.4,-,N/A,,Mostly Cloudy,20,2013-05-06 14:55:00
10:15 AM,64.4,46.4,52,30.06,10.0,North,11.5,-,N/A,,Overcast,10,2013-05-06 15:15:00
10:35 AM,66.2,46.4,49,30.06,10.0,NNE,9.2,-,N/A,,Mostly Cloudy,20,2013-05-06 15:35:00
10:55 AM,68.0,48.2,49,30.06,10.0,North,9.2,-,N/A,,Mostly Cloudy,360,2013-05-06 15:55:00
11:15 AM,69.8,48.2,46,30.05,10.0,North,12.7,16.1,N/A,,Mostly Cloudy,350,2013-05-06 16:15:00
11:35 AM,69.8,48.2,46,30.05,10.0,North,10.4,16.1,N/A,,Partly Cloudy,10,2013-05-06 16:35:00
11:55 AM,71.6,48.2,43,30.04,10.0,NNE,12.7,-,N/A,,Clear,30,2013-05-06 16:55:00
12:15 PM,71.6,48.2,43,30.03,10.0,NE,12.7,-,N/A,,Clear,40,2013-05-06 17:15:00
12:35 PM,71.6,48.2,43,30.03,10.0,NE,10.4,-,N/A,,Clear,40,2013-05-06 17:35:00
12:55 PM,73.4,48.2,41,30.02,10.0,North,11.5,-,N/A,,Clear,10,2013-05-06 17:55:00
1:15 PM,73.4,48.2,41,30.02,10.0,NNE,13.8,-,N/A,,Clear,20,2013-05-06 18:15:00
1:35 PM,75.2,48.2,38,30.02,10.0,NNE,9.2,19.6,N/A,,Clear,30,2013-05-06 18:35:00
1:55 PM,75.2,46.4,36,30.01,10.0,NE,9.2,16.1,N/A,,Clear,40,2013-05-06 18:55:00
2:15 PM,73.4,46.4,38,30.01,10.0,NE,10.4,-,N/A,,Clear,40,2013-05-06 19:15:00
2:35 PM,75.2,44.6,34,30.00,10.0,NNE,11.5,17.3,N/A,,Clear,20,2013-05-06 19:35:00
2:55 PM,75.2,44.6,34,30.00,10.0,NE,12.7,-,N/A,,Clear,40,2013-05-06 19:55:00
3:15 PM,75.2,42.8,31,29.99,10.0,NNE,10.4,16.1,N/A,,Clear,20,2013-05-06 20:15:00
3:35 PM,75.2,44.6,34,29.99,10.0,North,9.2,-,N/A,,Clear,10,2013-05-06 20:35:00
3:55 PM,75.2,41.0,29,29.99,10.0,NE,10.4,-,N/A,,Clear,50,2013-05-06 20:55:00
4:15 PM,75.2,42.8,31,29.98,10.0,NE,10.4,-,N/A,,Clear,40,2013-05-06 21:15:00
4:35 PM,75.2,39.2,27,29.98,10.0,NNE,10.4,16.1,N/A,,Clear,20,2013-05-06 21:35:00
4:55 PM,75.2,41.0,29,29.98,10.0,NE,10.4,-,N/A,,Scattered Clouds,40,2013-05-06 21:55:00
5:15 PM,75.2,41.0,29,29.98,10.0,NNE,10.4,17.3,N/A,,Mostly Cloudy,20,2013-05-06 22:15:00
5:55 PM,73.4,42.8,33,29.98,10.0,NNE,6.9,-,N/A,,Clear,30,2013-05-06 22:55:00
6:15 PM,73.4,39.2,29,29.98,10.0,North,6.9,-,N/A,,Partly Cloudy,10,2013-05-06 23:15:00
6:35 PM,71.6,39.2,31,29.98,10.0,North,5.8,-,N/A,,Clear,360,2013-05-06 23:35:00
6:55 PM,71.6,39.2,31,29.99,10.0,North,5.8,-,N/A,,Mostly Cloudy,360,2013-05-06 23:55:00
7:15 PM,71.6,39.2,31,29.99,10.0,North,4.6,-,N/A,,Overcast,10,2013-05-07 00:15:00
7:35 PM,69.8,39.2,33,29.99,10.0,North,4.6,-,N/A,,Scattered Clouds,10,2013-05-07 00:35:00
7:55 PM,69.8,39.2,33,30.00,10.0,North,4.6,-,N/A,,Mostly Cloudy,10,2013-05-07 00:55:00
8:15 PM,66.2,42.8,43,30.00,10.0,Calm,Calm,-,N/A,,Overcast,0,2013-05-07 01:15:00
8:35 PM,66.2,44.6,46,30.01,10.0,NE,3.5,-,N/A,,Overcast,40,2013-05-07 01:35:00
8:55 PM,62.6,48.2,59,30.01,10.0,ENE,5.8,-,N/A,,Overcast,70,2013-05-07 01:55:00
9:15 PM,64.4,46.4,52,30.01,10.0,ENE,3.5,-,N/A,,Overcast,70,2013-05-07 02:15:00
9:35 PM,62.6,48.2,59,30.02,10.0,ENE,3.5,-,N/A,,Mostly Cloudy,70,2013-05-07 02:35:00
10:15 PM,60.8,46.4,59,30.03,10.0,Calm,Calm,-,N/A,,Overcast,0,2013-05-07 03:15:00
10:35 PM,60.8,46.4,59,30.03,10.0,Calm,Calm,-,N/A,,Overcast,0,2013-05-07 03:35:00
10:55 PM,60.8,46.4,59,30.02,10.0,Calm,Calm,-,N/A,,Mostly Cloudy,0,2013-05-07 03:55:00
11:15 PM,60.8,44.6,55,30.02,10.0,ENE,3.5,-,N/A,,Partly Cloudy,70,2013-05-07 04:15:00
11:35 PM,57.2,44.6,63,30.02,10.0,Calm,Calm,-,N/A,,Mostly Cloudy,0,2013-05-07 04:35:00
11:55 PM,57.2,44.6,63,30.03,10.0,Calm,Calm,-,N/A,,Overcast,0,2013-05-07 04:55:00